Time;durP1;ratioP1;P1;durP2;ratioP2;P2;SDS_P1;SDS_P2;PMS_P1;PMS_P2;Temp;Humidity;BMP_temperature;BMP_pressure;BME280_temperature;BME280_humidity;BME280_pressure;Samples;Min_cycle;Max_cycle;Signal;HPM_P1;HPM_P2
2024/04/04 00:01:46;;;;;;;5.90;2.40;;;;;;;9.04;100.00;99848.95;109483;1253;59835;-53
2024/04/04 00:04:16;;;;;;;6.50;2.90;;;;;;;8.96;100.00;99847.69;109514;1251;75963;-54
2024/04/04 00:06:44;;;;;;;5.70;2.90;;;;;;;8.88;100.00;99845.80;109512;1250;67237;-53
2024/04/04 00:09:13;;;;;;;4.60;2.60;;;;;;;8.83;100.00;99843.52;109442;1253;72745;-57
2024/04/04 00:11:41;;;;;;;5.60;2.80;;;;;;;8.78;100.00;99843.67;109491;1250;59758;-54
2024/04/04 00:14:09;;;;;;;6.60;3.00;;;;;;;8.75;100.00;99846.84;109506;1250;60149;-54
2024/04/04 00:16:37;;;;;;;6.40;3.10;;;;;;;8.73;100.00;99846.26;109520;1250;75726;-53
2024/04/04 00:19:04;;;;;;;8.80;3.50;;;;;;;8.70;100.00;99847.38;109477;1250;66957;-58
2024/04/04 00:21:32;;;;;;;6.60;3.30;;;;;;;8.68;100.00;99848.67;109460;1250;72681;-54
2024/04/04 00:23:59;;;;;;;7.40;2.70;;;;;;;8.66;100.00;99851.08;109468;1250;59780;-53
2024/04/04 00:26:27;;;;;;;5.40;2.70;;;;;;;8.62;100.00;99850.27;109512;1249;59734;-54
2024/04/04 00:28:55;;;;;;;6.20;2.90;;;;;;;8.61;100.00;99849.45;109528;1250;75656;-54
2024/04/04 00:31:22;;;;;;;5.00;2.70;;;;;;;8.58;100.00;99849.26;109451;1250;65708;-58
2024/04/04 00:33:50;;;;;;;6.50;2.90;;;;;;;8.54;100.00;99852.45;109562;1250;71430;-53
2024/04/04 00:36:17;;;;;;;5.70;2.90;;;;;;;8.51;100.00;99851.16;109501;1250;59779;-54
2024/04/04 00:38:45;;;;;;;6.00;2.90;;;;;;;8.48;100.00;99848.59;109478;1250;60200;-54
2024/04/04 00:41:13;;;;;;;6.00;3.30;;;;;;;8.44;100.00;99852.83;109449;1253;75844;-55
2024/04/04 00:43:41;;;;;;;5.90;2.60;;;;;;;8.39;100.00;99850.00;109490;1250;67699;-53
2024/04/04 00:46:08;;;;;;;6.00;2.80;;;;;;;8.34;100.00;99851.13;109496;1250;72765;-53
2024/04/04 00:48:36;;;;;;;8.80;3.10;;;;;;;8.29;100.00;99852.17;109439;1251;60106;-54
2024/04/04 00:51:03;;;;;;;6.20;3.00;;;;;;;8.26;100.00;99851.48;109500;1250;59817;-53
2024/04/04 00:53:31;;;;;;;6.20;3.50;;;;;;;8.23;100.00;99857.92;109454;1250;75549;-56
2024/04/04 00:55:58;;;;;;;6.00;3.10;;;;;;;8.19;100.00;99855.59;109395;1250;65636;-54
2024/04/04 00:58:26;;;;;;;8.80;3.90;;;;;;;8.16;100.00;99857.55;109512;1250;72693;-53
2024/04/04 01:00:53;;;;;;;6.80;3.30;;;;;;;8.11;100.00;99854.44;109395;1250;59728;-53
2024/04/04 01:03:21;;;;;;;8.50;3.90;;;;;;;8.05;100.00;99854.10;109580;1250;59898;-54
2024/04/04 01:05:48;;;;;;;9.70;3.70;;;;;;;7.98;100.00;99852.81;109504;1250;75529;-57
2024/04/04 01:08:15;;;;;;;8.70;3.40;;;;;;;7.93;100.00;99849.41;109522;1250;66778;-54
2024/04/04 01:10:43;;;;;;;9.90;4.10;;;;;;;7.89;100.00;99855.80;109502;1250;72887;-53
2024/04/04 01:13:10;;;;;;;8.90;3.80;;;;;;;7.87;100.00;99858.41;109442;1250;59760;-53
2024/04/04 01:15:38;;;;;;;7.00;3.40;;;;;;;7.87;100.00;99863.23;109519;1250;59730;-53
2024/04/04 01:18:05;;;;;;;8.00;4.00;;;;;;;7.86;100.00;99863.38;109424;1250;75548;-58
2024/04/04 01:20:33;;;;;;;6.70;3.90;;;;;;;7.83;100.00;99857.27;109508;1250;67107;-54
2024/04/04 01:23:00;;;;;;;8.80;4.90;;;;;;;7.82;100.00;99852.42;109473;1250;72715;-54
2024/04/04 01:25:27;;;;;;;8.00;4.20;;;;;;;7.81;100.00;99851.89;109505;1250;60185;-54
2024/04/04 01:27:55;;;;;;;7.80;4.10;;;;;;;7.80;100.00;99866.96;109502;1250;60264;-54
2024/04/04 01:30:23;;;;;;;9.20;4.30;;;;;;;7.78;100.00;99878.80;109474;1250;75538;-54
2024/04/04 01:32:50;;;;;;;9.60;4.70;;;;;;;7.76;100.00;99875.55;109528;1250;65640;-54
2024/04/04 01:35:17;;;;;;;9.40;5.10;;;;;;;7.75;100.00;99874.83;109488;1252;72784;-53
2024/04/04 01:37:45;;;;;;;9.90;4.70;;;;;;;7.75;100.00;99875.89;109454;1250;60604;-53
2024/04/04 01:40:12;;;;;;;11.10;4.80;;;;;;;7.73;100.00;99875.10;109480;1250;60150;-55
2024/04/04 01:42:40;;;;;;;11.20;5.10;;;;;;;7.68;100.00;99878.92;109496;1250;76105;-54
2024/04/04 01:45:07;;;;;;;9.30;5.10;;;;;;;7.63;100.00;99878.48;109526;1251;67102;-53
2024/04/04 01:47:35;;;;;;;9.20;4.50;;;;;;;7.62;100.00;99877.75;109506;1250;71479;-54
2024/04/04 01:50:03;;;;;;;10.50;4.60;;;;;;;7.61;100.00;99874.92;109490;1250;59901;-53
2024/04/04 01:52:30;;;;;;;8.80;5.10;;;;;;;7.57;100.00;99873.20;109474;1250;59671;-58
2024/04/04 01:54:58;;;;;;;10.40;4.90;;;;;;;7.59;100.00;99867.20;109420;1250;76215;-54
2024/04/04 01:57:25;;;;;;;10.50;5.00;;;;;;;7.63;100.00;99864.31;109528;1249;67099;-53
2024/04/04 01:59:53;;;;;;;9.90;4.60;;;;;;;7.65;100.00;99865.42;109444;1250;71453;-53
2024/04/04 02:02:20;;;;;;;10.90;5.40;;;;;;;7.66;100.00;99864.10;109517;1250;59828;-54
2024/04/04 02:04:48;;;;;;;9.70;4.70;;;;;;;7.64;100.00;99865.70;109489;1250;60353;-54
2024/04/04 02:07:15;;;;;;;9.20;4.90;;;;;;;7.60;100.00;99864.85;109478;1250;75584;-54
2024/04/04 02:09:43;;;;;;;10.10;4.90;;;;;;;7.59;100.00;99866.68;109537;1250;66713;-53
2024/04/04 02:12:10;;;;;;;10.60;5.40;;;;;;;7.58;100.00;99860.73;109490;1250;71548;-53
2024/04/04 02:14:37;;;;;;;9.70;5.20;;;;;;;7.55;100.00;99858.17;109437;1250;60062;-58
2024/04/04 02:17:05;;;;;;;10.40;5.60;;;;;;;7.51;100.00;99860.23;109473;1250;60049;-53
2024/04/04 02:19:32;;;;;;;11.80;5.30;;;;;;;7.44;100.00;99860.48;109532;1250;74230;-53
2024/04/04 02:22:00;;;;;;;9.20;5.40;;;;;;;7.41;100.00;99866.92;109493;1250;65673;-53
2024/04/04 02:24:27;;;;;;;10.70;5.40;;;;;;;7.36;100.00;99864.20;109482;1250;72640;-54
2024/04/04 02:26:54;;;;;;;10.70;4.60;;;;;;;7.33;100.00;99865.61;109369;1250;60010;-57
2024/04/04 02:29:22;;;;;;;12.10;5.40;;;;;;;7.31;100.00;99860.70;109475;1250;59730;-53
2024/04/04 02:31:50;;;;;;;9.80;4.60;;;;;;;7.30;100.00;99861.92;109495;1250;75495;-54
2024/04/04 02:34:17;;;;;;;13.00;5.20;;;;;;;7.29;100.00;99866.50;109502;1250;67456;-53
2024/04/04 02:36:45;;;;;;;11.90;5.10;;;;;;;7.28;100.00;99868.13;109511;1250;72728;-58
2024/04/04 02:39:13;;;;;;;10.10;5.00;;;;;;;7.25;100.00;99870.80;109370;1250;59822;-54
2024/04/04 02:41:41;;;;;;;9.20;4.80;;;;;;;7.22;100.00;99872.83;109539;1249;60109;-53
2024/04/04 02:44:08;;;;;;;11.70;5.70;;;;;;;7.22;100.00;99872.83;109559;1250;74892;-53
2024/04/04 02:46:37;;;;;;;9.20;5.20;;;;;;;7.25;100.00;99877.16;109540;1249;67091;-54
2024/04/04 02:49:04;;;;;;;11.30;5.00;;;;;;;7.27;100.00;99876.75;109472;1250;73440;-54
2024/04/04 02:51:34;;;;;;;12.10;5.10;;;;;;;7.29;100.00;99879.64;109534;1250;59830;-54
2024/04/04 02:54:02;;;;;;;9.60;4.90;;;;;;;7.31;100.00;99887.20;109581;1250;59884;-54
2024/04/04 02:56:30;;;;;;;10.40;5.20;;;;;;;7.33;100.00;99892.47;109566;1249;75255;-53
2024/04/04 02:58:57;;;;;;;11.30;5.20;;;;;;;7.34;100.00;99896.98;109523;1250;65652;-54
2024/04/04 03:01:24;;;;;;;10.80;4.50;;;;;;;7.30;100.00;99894.80;109529;1250;72069;-54
2024/04/04 03:03:52;;;;;;;9.60;5.40;;;;;;;7.26;100.00;99898.09;109457;1253;59738;-53
2024/04/04 03:06:19;;;;;;;10.50;5.10;;;;;;;7.25;100.00;99897.39;109568;1250;59695;-53
2024/04/04 03:08:47;;;;;;;9.80;4.80;;;;;;;7.25;100.00;99897.26;109551;1250;75540;-54
2024/04/04 03:11:14;;;;;;;8.40;4.60;;;;;;;7.28;100.00;99898.59;109532;1250;67105;-55
2024/04/04 03:13:42;;;;;;;9.80;4.70;;;;;;;7.34;100.00;99895.15;109516;1250;72724;-54
2024/04/04 03:16:09;;;;;;;9.60;4.80;;;;;;;7.49;100.00;99901.61;109556;1250;60084;-53
2024/04/04 03:18:37;;;;;;;10.40;4.60;;;;;;;7.74;100.00;99901.42;109593;1250;59873;-53
2024/04/04 03:21:04;;;;;;;8.00;4.30;;;;;;;8.06;100.00;99894.20;109543;1250;74496;-54
2024/04/04 03:23:32;;;;;;;7.90;4.10;;;;;;;8.44;100.00;99895.10;109491;1250;67529;-55
2024/04/04 03:25:59;;;;;;;10.00;4.40;;;;;;;8.90;100.00;99892.77;109497;1250;71570;-54
2024/04/04 03:28:27;;;;;;;8.40;4.40;;;;;;;9.39;100.00;99896.91;109485;1250;59796;-54
2024/04/04 03:30:54;;;;;;;9.20;4.10;;;;;;;9.89;100.00;99896.74;109484;1250;59764;-55
2024/04/04 03:33:21;;;;;;;9.50;4.20;;;;;;;10.40;100.00;99894.34;109474;1250;75496;-58
2024/04/04 03:35:49;;;;;;;8.40;3.90;;;;;;;10.92;100.00;99899.90;109501;1250;65719;-55
2024/04/04 03:38:16;;;;;;;7.60;3.80;;;;;;;11.44;100.00;99898.98;109479;1250;72734;-54
2024/04/04 03:40:52;;;;;;;6.40;3.80;;;;;;;11.97;100.00;99895.76;109468;1251;59835;-54
2024/04/04 03:43:20;;;;;;;7.90;3.90;;;;;;;12.58;99.51;99892.09;109502;1250;60098;-56
2024/04/04 03:45:48;;;;;;;7.40;4.20;;;;;;;13.10;90.97;99888.77;109503;1250;75839;-55
2024/04/04 03:48:18;;;;;;;8.20;4.10;;;;;;;13.40;83.86;99892.48;109531;1250;67119;-55
2024/04/04 03:50:46;;;;;;;7.60;3.80;;;;;;;13.51;77.30;99892.38;109510;1250;72748;-55
2024/04/04 03:53:14;;;;;;;8.40;4.00;;;;;;;13.59;75.28;99895.19;109411;1253;60104;-59
2024/04/04 03:55:42;;;;;;;9.70;4.30;;;;;;;13.92;72.82;99895.44;109507;1250;60337;-55
2024/04/04 03:58:09;;;;;;;8.60;4.20;;;;;;;14.37;68.77;99893.06;109545;1250;75595;-55
2024/04/04 04:00:37;;;;;;;9.00;4.00;;;;;;;14.75;63.37;99894.09;109485;1250;65801;-55
2024/04/04 04:03:04;;;;;;;9.90;3.80;;;;;;;14.93;60.03;99895.59;109472;1250;72764;-55
2024/04/04 04:05:32;;;;;;;7.90;3.80;;;;;;;15.16;58.29;99894.69;109453;1250;60308;-55
2024/04/04 04:08:00;;;;;;;7.20;3.90;;;;;;;15.69;56.21;99892.55;109481;1250;60277;-55
2024/04/04 04:10:31;;;;;;;6.90;3.90;;;;;;;16.36;52.50;99885.19;109467;1250;75563;-55
2024/04/04 04:12:58;;;;;;;8.10;4.00;;;;;;;16.77;48.89;99879.15;109490;1250;65811;-59
2024/04/04 04:15:26;;;;;;;8.90;4.00;;;;;;;17.07;47.60;99883.24;109509;1250;70843;-56
2024/04/04 04:17:53;;;;;;;7.20;4.30;;;;;;;17.57;46.37;99884.08;109489;1250;60190;-55
2024/04/04 04:23:07;;;;;;;7.30;4.40;;;;;;;18.69;43.01;99888.23;109451;1251;75862;-55
2024/04/04 04:25:35;;;;;;;7.30;4.50;;;;;;;19.38;41.44;99891.66;109443;1256;66989;-55
2024/04/04 04:28:03;;;;;;;6.90;4.00;;;;;;;20.13;39.98;99891.19;109486;1249;71420;-55
2024/04/04 04:30:30;;;;;;;8.60;5.00;;;;;;;20.80;38.26;99889.44;109497;1251;59731;-56
2024/04/04 04:32:58;;;;;;;9.90;4.30;;;;;;;21.35;36.69;99895.33;109420;1250;60223;-56
2024/04/04 04:35:25;;;;;;;6.60;4.00;;;;;;;21.89;35.83;99900.14;109492;1250;75501;-56
2024/04/04 04:37:53;;;;;;;5.60;4.00;;;;;;;22.42;34.61;99897.02;109493;1250;66195;-56
2024/04/04 04:40:20;;;;;;;6.80;4.50;;;;;;;22.81;33.37;99896.92;109493;1251;72874;-56
2024/04/04 04:42:48;;;;;;;7.60;5.00;;;;;;;23.01;32.47;99893.51;109484;1251;60250;-55
2024/04/04 04:45:16;;;;;;;6.80;4.50;;;;;;;23.22;32.28;99896.86;109427;1250;60111;-57
2024/04/04 04:47:43;;;;;;;7.40;4.50;;;;;;;23.57;31.56;99896.20;109487;1250;74258;-56
2024/04/04 04:50:11;;;;;;;7.30;4.10;;;;;;;23.75;31.11;99902.83;109523;1250;65719;-55
2024/04/04 04:52:39;;;;;;;7.30;4.60;;;;;;;24.01;30.91;99906.11;109509;1250;72727;-53
2024/04/04 04:55:06;;;;;;;7.10;5.00;;;;;;;24.42;30.20;99902.89;109446;1250;59663;-54
2024/04/04 04:57:34;;;;;;;9.40;5.20;;;;;;;24.78;29.70;99904.14;109477;1250;60362;-55
2024/04/04 05:00:02;;;;;;;8.20;5.70;;;;;;;25.11;29.17;99901.98;109503;1250;75532;-54
2024/04/04 05:02:30;;;;;;;7.70;5.60;;;;;;;25.37;28.53;99900.06;109493;1250;65118;-53
2024/04/04 05:05:13;;;;;;;10.60;5.80;;;;;;;25.55;28.44;99896.90;109447;1251;72905;-58
2024/04/04 05:07:41;;;;;;;9.20;6.10;;;;;;;25.85;27.99;99895.46;109470;1250;60227;-53
2024/04/04 05:10:13;;;;;;;7.70;5.80;;;;;;;25.99;27.60;99892.19;109446;1250;62226;-54
2024/04/04 05:12:40;;;;;;;8.70;6.40;;;;;;;26.11;27.45;99897.01;109443;1251;73802;-58
2024/04/04 05:15:07;;;;;;;7.80;5.70;;;;;;;26.30;27.40;99897.98;109482;1249;65757;-56
2024/04/04 05:17:35;;;;;;;8.30;6.10;;;;;;;26.51;26.97;99901.08;109488;1254;71434;-54
2024/04/04 05:20:04;;;;;;;6.80;5.60;;;;;;;26.65;26.64;99903.32;109394;1250;60125;-56
2024/04/04 05:22:32;;;;;;;7.10;5.50;;;;;;;26.67;26.60;99906.66;109533;1250;60145;-60
2024/04/04 05:24:59;;;;;;;8.70;5.60;;;;;;;26.63;26.45;99909.93;109480;1253;74897;-53
2024/04/04 05:27:27;;;;;;;12.40;6.70;;;;;;;26.48;26.48;99906.38;109534;1251;66951;-54
2024/04/04 05:29:54;;;;;;;8.70;5.70;;;;;;;26.26;26.47;99909.80;109470;1251;71887;-54
2024/04/04 05:32:22;;;;;;;7.90;5.90;;;;;;;25.82;26.95;99913.63;109433;1251;60159;-54
2024/04/04 05:34:50;;;;;;;9.30;6.50;;;;;;;25.14;27.64;99919.35;109396;1251;59791;-55
2024/04/04 05:37:18;;;;;;;8.60;6.40;;;;;;;24.48;28.47;99925.27;109448;1250;75456;-56
2024/04/04 05:39:45;;;;;;;8.10;5.80;;;;;;;23.99;29.45;99926.21;109461;1249;65744;-56
2024/04/04 05:42:13;;;;;;;9.20;5.70;;;;;;;23.52;30.04;99925.70;109529;1251;72705;-53
2024/04/04 05:44:40;;;;;;;8.60;5.60;;;;;;;23.14;30.96;99926.52;109434;1251;60013;-54
2024/04/04 05:47:08;;;;;;;8.90;6.20;;;;;;;22.86;31.45;99926.84;109482;1250;60197;-58
2024/04/04 05:49:35;;;;;;;9.80;5.60;;;;;;;22.56;31.87;99921.84;109512;1251;75596;-55
2024/04/04 05:52:03;;;;;;;11.20;6.20;;;;;;;22.23;32.41;99927.70;109509;1249;66904;-54
2024/04/04 05:54:31;;;;;;;10.90;5.60;;;;;;;21.95;32.77;99926.05;109489;1251;72716;-55
2024/04/04 05:56:58;;;;;;;8.70;5.90;;;;;;;21.73;33.48;99925.10;109495;1250;60180;-58
2024/04/04 05:59:27;;;;;;;9.50;6.10;;;;;;;21.67;33.93;99924.02;109466;1250;60146;-53
2024/04/04 06:01:54;;;;;;;9.20;5.70;;;;;;;21.70;34.01;99926.89;109482;1251;75510;-54
2024/04/04 06:04:22;;;;;;;8.30;5.40;;;;;;;21.69;33.98;99929.17;109496;1250;67050;-54
2024/04/04 06:06:58;;;;;;;10.00;5.60;;;;;;;21.62;34.30;99928.16;109430;1250;74020;-55
2024/04/04 06:09:26;;;;;;;7.90;5.00;;;;;;;21.63;34.74;99926.30;109430;1253;61709;-54
2024/04/04 06:11:53;;;;;;;8.20;5.40;;;;;;;21.74;34.44;99923.45;109500;1250;62541;-55
2024/04/04 06:14:21;;;;;;;9.10;6.20;;;;;;;21.82;34.45;99922.49;109473;1251;75488;-55
2024/04/04 06:16:49;;;;;;;8.80;4.90;;;;;;;21.94;34.55;99925.36;109437;1251;68192;-58
2024/04/04 06:19:17;;;;;;;8.90;6.60;;;;;;;22.12;34.35;99921.91;109455;1251;72711;-55
2024/04/04 06:21:45;;;;;;;10.00;5.90;;;;;;;22.29;34.05;99917.23;109483;1251;62201;-55
2024/04/04 06:24:12;;;;;;;10.50;6.10;;;;;;;22.44;33.68;99914.48;109481;1250;59657;-57
2024/04/04 06:26:42;;;;;;;8.40;5.40;;;;;;;22.64;33.53;99916.08;109505;1251;77959;-55
2024/04/04 06:29:10;;;;;;;8.10;6.10;;;;;;;22.89;32.78;99913.27;109497;1251;67850;-56
2024/04/04 06:31:37;;;;;;;6.40;3.30;;;;;;;23.22;32.22;99905.41;109460;1250;74168;-54
2024/04/04 06:34:05;;;;;;;5.70;2.90;;;;;;;23.69;31.17;99906.74;109436;1254;62456;-55
2024/04/04 06:36:33;;;;;;;5.40;2.70;;;;;;;24.40;30.50;99903.02;109528;1251;63086;-55
2024/04/04 06:39:03;;;;;;;4.30;3.10;;;;;;;25.12;29.32;99898.38;109466;1250;78125;-58
2024/04/04 06:41:31;;;;;;;6.10;3.70;;;;;;;25.70;28.65;99893.45;109512;1251;69942;-55
2024/04/04 06:43:58;;;;;;;6.30;3.40;;;;;;;26.17;28.31;99892.23;109468;1250;75387;-55
2024/04/04 06:46:26;;;;;;;9.80;8.80;;;;;;;26.67;27.69;99892.20;109461;1251;61507;-55
2024/04/04 06:48:54;;;;;;;10.40;8.70;;;;;;;27.18;26.80;99892.31;109462;1250;61961;-55
2024/04/04 06:51:21;;;;;;;6.30;3.60;;;;;;;27.48;26.43;99890.07;109443;1251;77986;-55
2024/04/04 06:53:49;;;;;;;25.10;22.60;;;;;;;27.66;25.86;99893.23;109538;1251;69454;-55
2024/04/04 06:56:16;;;;;;;6.30;4.20;;;;;;;27.69;25.98;99891.14;109511;1250;75255;-56
2024/04/04 06:58:44;;;;;;;29.40;26.50;;;;;;;27.67;25.27;99889.66;109439;1249;62847;-55
2024/04/04 07:01:11;;;;;;;7.20;5.50;;;;;;;27.61;25.17;99889.65;109412;1249;62593;-55
2024/04/04 07:03:39;;;;;;;5.90;3.30;;;;;;;27.62;25.86;99890.83;109485;1251;77987;-55
2024/04/04 07:06:07;;;;;;;4.60;3.10;;;;;;;27.76;25.89;99888.31;109546;1251;68811;-56
2024/04/04 07:08:38;;;;;;;4.60;3.40;;;;;;;28.04;25.34;99893.59;109444;1251;74165;-55
2024/04/04 07:11:06;;;;;;;7.10;4.60;;;;;;;28.16;25.07;99889.81;109501;1250;62574;-59
2024/04/04 07:13:35;;;;;;;4.70;3.30;;;;;;;28.27;24.78;99890.86;109460;1250;62458;-56
2024/04/04 07:16:04;;;;;;;12.10;9.60;;;;;;;28.38;24.65;99881.56;109458;1251;78040;-56
2024/04/04 07:18:31;;;;;;;9.50;6.20;;;;;;;28.45;24.40;99880.86;109472;1249;69518;-55
2024/04/04 07:21:00;;;;;;;3.90;2.60;;;;;;;28.56;24.51;99879.47;109445;1251;75019;-56
2024/04/04 07:23:28;;;;;;;13.30;7.20;;;;;;;28.71;24.31;99879.02;109353;1249;61283;-56
2024/04/04 07:25:55;;;;;;;11.00;5.80;;;;;;;28.72;23.99;99877.84;109452;1250;62376;-55
2024/04/04 07:28:23;;;;;;;5.20;2.30;;;;;;;28.76;24.06;99875.75;109505;1250;77508;-55
2024/04/04 07:30:50;;;;;;;5.90;2.70;;;;;;;28.89;22.72;99872.61;109493;1250;70095;-55
2024/04/04 07:33:18;;;;;;;5.30;2.60;;;;;;;28.99;22.11;99871.41;109488;1251;74334;-55
2024/04/04 07:35:46;;;;;;;7.80;1.90;;;;;;;29.04;21.48;99867.88;109410;1251;61826;-56
2024/04/04 07:38:13;;;;;;;7.90;1.20;;;;;;;28.94;21.26;99866.72;109502;1249;62126;-55
2024/04/04 07:40:41;;;;;;;8.10;1.50;;;;;;;28.79;20.95;99865.66;109456;1251;77991;-55
2024/04/04 07:43:09;;;;;;;4.60;1.90;;;;;;;28.70;21.06;99861.13;109490;1250;69596;-55
2024/04/04 07:45:41;;;;;;;5.90;1.10;;;;;;;28.57;21.08;99850.10;109397;1250;75357;-56
2024/04/04 07:48:10;;;;;;;3.40;1.00;;;;;;;28.35;21.03;99859.81;109451;1251;61187;-55
2024/04/04 07:50:38;;;;;;;2.60;1.10;;;;;;;28.18;21.28;99856.75;109475;1249;61462;-55
2024/04/04 07:53:06;;;;;;;9.00;1.40;;;;;;;28.09;21.73;99854.52;109456;1250;76895;-55
2024/04/04 07:55:35;;;;;;;13.00;2.60;;;;;;;28.05;21.54;99850.33;109431;1250;69769;-56
2024/04/04 07:58:03;;;;;;;7.40;1.30;;;;;;;27.94;21.55;99852.55;109448;1250;75390;-56
2024/04/04 08:00:31;;;;;;;4.90;1.30;;;;;;;27.80;21.83;99853.85;109454;1250;61113;-56
2024/04/04 08:02:59;;;;;;;4.80;1.70;;;;;;;27.78;21.99;99850.95;109470;1250;61578;-55
2024/04/04 08:05:30;;;;;;;2.70;1.20;;;;;;;27.80;21.88;99844.45;109462;1250;77982;-55
2024/04/04 08:07:58;;;;;;;7.20;1.80;;;;;;;27.52;21.50;99851.58;109443;1250;67757;-56
2024/04/04 08:10:26;;;;;;;26.20;2.90;;;;;;;26.95;21.90;99849.25;109425;1251;75270;-55
2024/04/04 08:12:55;;;;;;;5.70;1.40;;;;;;;26.52;22.54;99851.67;109449;1249;62580;-55
2024/04/04 08:15:23;;;;;;;6.40;1.80;;;;;;;26.45;22.62;99844.52;109491;1250;61527;-55
2024/04/04 08:17:51;;;;;;;3.60;1.20;;;;;;;26.38;22.66;99838.55;109404;1249;77985;-55
2024/04/04 08:20:19;;;;;;;3.70;1.30;;;;;;;26.26;22.92;99832.60;109463;1250;69611;-55
2024/04/04 08:22:47;;;;;;;4.10;1.70;;;;;;;26.37;22.72;99824.90;109536;1250;73609;-56
2024/04/04 08:25:14;;;;;;;4.50;1.20;;;;;;;26.50;22.59;99823.69;109426;1251;61435;-54
2024/04/04 08:27:44;;;;;;;2.50;0.80;;;;;;;26.50;22.40;99825.66;109455;1250;62509;-57
2024/04/04 08:30:11;;;;;;;2.10;0.90;;;;;;;26.14;22.39;99828.28;109444;1251;77980;-57
2024/04/04 08:32:39;;;;;;;4.00;1.00;;;;;;;25.83;22.92;99827.59;109465;1251;69140;-55
2024/04/04 08:35:07;;;;;;;4.90;1.30;;;;;;;25.83;23.15;99819.36;109442;1250;74110;-56
2024/04/04 08:37:35;;;;;;;4.80;1.20;;;;;;;25.81;23.05;99821.64;109422;1250;62334;-55
2024/04/04 08:40:04;;;;;;;3.60;1.00;;;;;;;25.56;22.94;99811.77;109428;1250;61511;-55
2024/04/04 08:42:33;;;;;;;2.50;1.20;;;;;;;25.24;23.19;99820.55;109462;1249;77830;-55
2024/04/04 08:45:01;;;;;;;2.70;1.20;;;;;;;24.93;23.09;99821.39;109452;1251;69186;-55
2024/04/04 08:47:29;;;;;;;2.70;1.70;;;;;;;24.74;23.57;99817.34;109434;1250;75239;-55
2024/04/04 08:49:56;;;;;;;5.80;1.70;;;;;;;24.98;23.98;99813.55;109330;1254;61505;-55
2024/04/04 08:52:24;;;;;;;9.60;1.70;;;;;;;25.52;23.43;99811.33;109457;1250;62134;-56
2024/04/04 08:54:52;;;;;;;3.20;0.70;;;;;;;25.97;22.05;99813.07;109471;1249;77987;-55
2024/04/04 08:57:20;;;;;;;2.50;1.00;;;;;;;26.06;21.61;99815.09;109480;1249;69513;-56
2024/04/04 08:59:57;;;;;;;5.30;1.40;;;;;;;26.08;22.05;99812.60;109371;1250;72963;-59
2024/04/04 09:02:27;;;;;;;4.30;1.30;;;;;;;26.08;21.84;99807.09;109442;1253;62529;-55
2024/04/04 09:05:07;;;;;;;3.30;0.90;;;;;;;25.88;21.75;99807.08;109503;1249;62272;-55
2024/04/04 09:07:36;;;;;;;1.30;0.80;;;;;;;25.37;21.90;99809.45;109423;1250;76325;-55
2024/04/04 09:10:03;;;;;;;2.00;0.70;;;;;;;24.72;22.45;99812.52;109469;1250;68741;-55
2024/04/04 09:12:31;;;;;;;4.90;1.10;;;;;;;24.09;22.19;99814.70;109451;1250;75296;-55
2024/04/04 09:15:00;;;;;;;5.20;1.20;;;;;;;23.67;22.86;99816.77;109437;1250;62751;-55
2024/04/04 09:17:27;;;;;;;8.80;1.80;;;;;;;23.68;23.20;99814.00;109459;1250;62604;-55
2024/04/04 09:19:55;;;;;;;5.90;2.20;;;;;;;24.04;22.75;99807.05;109441;1250;78015;-55
2024/04/04 09:22:25;;;;;;;2.00;0.80;;;;;;;24.49;22.45;99803.97;109492;1249;69848;-54
2024/04/04 09:25:02;;;;;;;3.90;1.00;;;;;;;24.71;22.35;99797.19;109442;1250;75302;-55
2024/04/04 09:27:38;;;;;;;5.60;1.90;;;;;;;24.59;22.94;99805.24;109436;1250;62250;-59
2024/04/04 09:30:10;;;;;;;3.50;1.00;;;;;;;24.52;22.81;99807.58;109451;1251;63308;-55
2024/04/04 09:32:37;;;;;;;3.20;0.90;;;;;;;24.46;22.06;99802.97;109389;1250;78203;-55
2024/04/04 09:35:05;;;;;;;6.90;1.20;;;;;;;24.29;22.08;99806.66;109510;1249;67933;-54
2024/04/04 09:37:39;;;;;;;2.80;0.90;;;;;;;24.02;22.07;99798.81;109272;1251;75119;-58
2024/04/04 09:40:08;;;;;;;4.80;1.00;;;;;;;23.99;22.75;99796.34;109435;1249;62835;-54
2024/04/04 09:42:41;;;;;;;2.40;0.70;;;;;;;24.29;22.15;99792.75;109491;1249;62778;-54
2024/04/04 09:45:09;;;;;;;6.40;1.40;;;;;;;24.34;22.19;99803.66;109406;1249;76632;-54
2024/04/04 09:47:44;;;;;;;2.60;0.90;;;;;;;24.37;22.16;99796.66;109422;1250;69560;-54
2024/04/04 09:50:15;;;;;;;2.70;1.00;;;;;;;24.58;22.13;99796.98;109408;1250;73395;-54
2024/04/04 09:52:43;;;;;;;3.00;1.00;;;;;;;24.70;21.74;99796.19;109423;1250;62370;-56
2024/04/04 09:55:12;;;;;;;4.30;1.10;;;;;;;24.51;21.62;99793.25;109411;1250;62582;-58
2024/04/04 09:57:39;;;;;;;2.80;1.40;;;;;;;24.16;21.71;99790.93;109353;1250;78596;-54
2024/04/04 10:00:17;;;;;;;4.40;1.20;;;;;;;23.85;22.25;99788.66;109420;1250;69633;-54
2024/04/04 10:02:49;;;;;;;3.70;1.40;;;;;;;23.63;22.99;99802.59;109475;1249;75264;-54
2024/04/04 10:05:35;;;;;;;9.20;1.50;;;;;;;23.40;23.57;99795.76;109323;1249;62605;-58
2024/04/04 10:08:11;;;;;;;4.10;1.20;;;;;;;23.18;24.18;99800.04;109444;1249;60985;-54
2024/04/04 10:10:39;;;;;;;4.80;1.40;;;;;;;23.08;24.45;99803.67;109461;1250;77762;-55
2024/04/04 10:13:08;;;;;;;4.80;1.80;;;;;;;22.96;24.74;99800.34;109408;1252;68493;-56
2024/04/04 10:15:43;;;;;;;5.20;1.50;;;;;;;22.85;25.10;99804.21;109425;1249;75204;-56
2024/04/04 10:18:11;;;;;;;4.70;1.10;;;;;;;22.75;25.06;99799.38;109454;1250;61632;-56
2024/04/04 10:20:43;;;;;;;4.50;1.20;;;;;;;22.66;25.06;99795.98;109460;1250;62899;-55
2024/04/04 10:23:13;;;;;;;2.40;1.20;;;;;;;22.61;25.36;99796.48;109386;1250;76665;-55
2024/04/04 10:25:44;;;;;;;2.40;1.10;;;;;;;22.73;25.58;99795.52;109479;1249;68577;-55
2024/04/04 10:28:11;;;;;;;5.20;1.30;;;;;;;22.94;25.38;99795.24;109443;1250;74096;-56
2024/04/04 10:30:42;;;;;;;3.70;1.70;;;;;;;23.15;24.82;99794.52;109448;1251;62075;-56
2024/04/04 10:33:13;;;;;;;2.40;1.20;;;;;;;23.17;24.58;99789.66;109429;1249;62121;-53
2024/04/04 10:35:41;;;;;;;4.80;1.70;;;;;;;23.12;24.54;99789.51;109454;1250;77607;-54
2024/04/04 10:38:12;;;;;;;2.00;1.00;;;;;;;23.02;24.83;99788.02;109449;1250;69468;-54
2024/04/04 10:40:40;;;;;;;4.00;1.20;;;;;;;22.97;24.87;99792.00;109434;1250;74666;-58
2024/04/04 10:43:08;;;;;;;4.10;1.10;;;;;;;23.03;25.03;99787.74;109449;1250;62639;-54
2024/04/04 10:45:36;;;;;;;4.40;1.70;;;;;;;23.09;24.84;99787.45;109485;1251;62592;-54
2024/04/04 10:48:04;;;;;;;2.80;1.00;;;;;;;23.04;24.46;99785.63;109436;1251;76819;-55
2024/04/04 10:50:32;;;;;;;3.00;1.60;;;;;;;22.96;24.30;99790.19;109453;1250;68143;-54
2024/04/04 10:52:59;;;;;;;7.50;4.80;;;;;;;22.94;24.13;99787.88;109387;1250;75316;-54
2024/04/04 10:55:28;;;;;;;10.80;5.30;;;;;;;23.09;23.73;99787.13;109324;1250;62096;-54
2024/04/04 10:57:55;;;;;;;8.20;3.40;;;;;;;23.34;23.62;99775.60;109359;1249;60365;-54
2024/04/04 11:00:29;;;;;;;3.60;1.20;;;;;;;23.42;23.31;99777.44;109518;1250;77509;-54
2024/04/04 11:03:00;;;;;;;9.40;2.80;;;;;;;23.37;23.14;99775.41;109391;1249;67733;-55
2024/04/04 11:05:28;;;;;;;7.30;2.20;;;;;;;23.21;23.42;99779.42;109469;1250;74747;-54
2024/04/04 11:08:00;;;;;;;5.50;1.90;;;;;;;23.19;23.51;99772.90;109414;1250;62566;-54
2024/04/04 11:10:27;;;;;;;3.60;1.10;;;;;;;23.22;23.35;99767.23;109441;1250;62592;-56
2024/04/04 11:12:55;;;;;;;10.40;3.70;;;;;;;23.24;23.36;99772.75;109220;1251;77002;-54
2024/04/04 11:15:25;;;;;;;4.60;1.60;;;;;;;23.22;23.64;99771.23;109290;1250;226496;-55
2024/04/04 11:17:53;;;;;;;4.50;1.90;;;;;;;23.17;23.83;99774.02;109325;1251;75325;-55
2024/04/04 11:20:23;;;;;;;4.50;1.60;;;;;;;23.15;23.89;99771.92;109440;1251;61378;-55
2024/04/04 11:22:52;;;;;;;3.40;1.60;;;;;;;23.18;23.85;99769.98;109388;1250;60333;-54
2024/04/04 11:25:19;;;;;;;7.00;1.90;;;;;;;23.28;24.03;99764.80;109452;1251;77614;-54
2024/04/04 11:27:47;;;;;;;5.00;1.20;;;;;;;23.35;23.69;99761.92;109455;1251;69512;-55
2024/04/04 11:30:15;;;;;;;5.90;1.60;;;;;;;23.34;23.47;99764.05;109437;1250;75734;-57
2024/04/04 11:32:42;;;;;;;4.40;1.60;;;;;;;23.29;23.73;99762.66;109377;1251;62686;-57